sensor_id;sensor_type;location;lat;lon;timestamp;P1;durP1;ratioP1;P2;durP2;ratioP2
42118;SDS011;27783;42.782;23.274;2023-02-28T00:01:20;35.85;;;23.15;;
42118;SDS011;27783;42.782;23.274;2023-02-28T00:03:46;28.05;;;19.55;;
42118;SDS011;27783;42.782;23.274;2023-02-28T00:06:11;33.65;;;22.15;;
42118;SDS011;27783;42.782;23.274;2023-02-28T00:08:37;39.75;;;25.00;;
42118;SDS011;27783;42.782;23.274;2023-02-28T00:11:05;37.20;;;23.88;;
42118;SDS011;27783;42.782;23.274;2023-02-28T00:13:33;41.47;;;24.63;;
42118;SDS011;27783;42.782;23.274;2023-02-28T00:16:02;37.67;;;25.08;;
42118;SDS011;27783;42.782;23.274;2023-02-28T00:18:34;35.03;;;23.70;;
42118;SDS011;27783;42.782;23.274;2023-02-28T00:20:59;34.67;;;22.10;;
42118;SDS011;27783;42.782;23.274;2023-02-28T00:23:25;32.97;;;22.42;;
42118;SDS011;27783;42.782;23.274;2023-02-28T00:25:51;38.72;;;22.30;;
42118;SDS011;27783;42.782;23.274;2023-02-28T00:28:17;37.65;;;21.63;;
42118;SDS011;27783;42.782;23.274;2023-02-28T00:30:42;34.58;;;21.00;;
42118;SDS011;27783;42.782;23.274;2023-02-28T00:33:08;42.20;;;23.33;;
42118;SDS011;27783;42.782;23.274;2023-02-28T00:35:33;36.78;;;24.05;;
42118;SDS011;27783;42.782;23.274;2023-02-28T00:37:58;38.25;;;24.95;;
42118;SDS011;27783;42.782;23.274;2023-02-28T00:40:24;147.50;;;102.18;;
42118;SDS011;27783;42.782;23.274;2023-02-28T00:42:49;95.07;;;68.00;;
42118;SDS011;27783;42.782;23.274;2023-02-28T00:45:14;100.43;;;71.03;;
42118;SDS011;27783;42.782;23.274;2023-02-28T00:47:40;152.23;;;97.57;;
42118;SDS011;27783;42.782;23.274;2023-02-28T00:50:05;119.15;;;80.25;;
42118;SDS011;27783;42.782;23.274;2023-02-28T00:52:31;116.10;;;76.97;;
42118;SDS011;27783;42.782;23.274;2023-02-28T00:54:56;68.65;;;44.50;;
42118;SDS011;27783;42.782;23.274;2023-02-28T00:57:22;77.22;;;51.72;;
42118;SDS011;27783;42.782;23.274;2023-02-28T00:59:48;57.05;;;39.45;;
42118;SDS011;27783;42.782;23.274;2023-02-28T01:02:13;46.72;;;33.53;;
42118;SDS011;27783;42.782;23.274;2023-02-28T01:04:38;40.42;;;28.02;;
42118;SDS011;27783;42.782;23.274;2023-02-28T01:07:04;35.72;;;25.20;;
42118;SDS011;27783;42.782;23.274;2023-02-28T01:09:29;34.42;;;22.45;;
42118;SDS011;27783;42.782;23.274;2023-02-28T01:11:55;34.30;;;22.38;;
42118;SDS011;27783;42.782;23.274;2023-02-28T01:14:20;34.53;;;21.20;;
42118;SDS011;27783;42.782;23.274;2023-02-28T01:16:46;34.38;;;21.00;;
42118;SDS011;27783;42.782;23.274;2023-02-28T01:19:11;27.23;;;20.20;;
42118;SDS011;27783;42.782;23.274;2023-02-28T01:21:37;34.25;;;21.95;;
42118;SDS011;27783;42.782;23.274;2023-02-28T01:24:03;28.30;;;20.10;;
42118;SDS011;27783;42.782;23.274;2023-02-28T01:26:29;33.63;;;21.65;;
42118;SDS011;27783;42.782;23.274;2023-02-28T01:28:55;33.03;;;22.45;;
42118;SDS011;27783;42.782;23.274;2023-02-28T01:31:21;34.15;;;22.30;;
42118;SDS011;27783;42.782;23.274;2023-02-28T01:33:47;39.15;;;23.40;;
42118;SDS011;27783;42.782;23.274;2023-02-28T01:36:19;39.20;;;21.83;;
42118;SDS011;27783;42.782;23.274;2023-02-28T01:38:47;32.35;;;19.85;;
42118;SDS011;27783;42.782;23.274;2023-02-28T01:41:18;37.53;;;20.17;;
42118;SDS011;27783;42.782;23.274;2023-02-28T01:44:54;33.53;;;21.90;;
42118;SDS011;27783;42.782;23.274;2023-02-28T01:47:11;38.97;;;23.45;;
42118;SDS011;27783;42.782;23.274;2023-02-28T01:49:37;37.72;;;23.40;;
42118;SDS011;27783;42.782;23.274;2023-02-28T01:52:02;35.35;;;21.83;;
42118;SDS011;27783;42.782;23.274;2023-02-28T01:54:29;41.53;;;24.60;;
42118;SDS011;27783;42.782;23.274;2023-02-28T01:56:57;36.45;;;24.33;;
42118;SDS011;27783;42.782;23.274;2023-02-28T02:02:10;43.55;;;26.27;;
42118;SDS011;27783;42.782;23.274;2023-02-28T02:05:19;40.25;;;25.25;;
42118;SDS011;27783;42.782;23.274;2023-02-28T02:07:49;46.05;;;27.75;;
42118;SDS011;27783;42.782;23.274;2023-02-28T02:10:20;40.67;;;24.83;;
42118;SDS011;27783;42.782;23.274;2023-02-28T02:18:44;49.17;;;30.23;;
42118;SDS011;27783;42.782;23.274;2023-02-28T02:34:55;30.52;;;20.33;;
42118;SDS011;27783;42.782;23.274;2023-02-28T02:37:33;33.70;;;23.10;;
42118;SDS011;27783;42.782;23.274;2023-02-28T02:40:17;34.47;;;22.02;;
42118;SDS011;27783;42.782;23.274;2023-02-28T02:42:50;39.53;;;22.35;;
42118;SDS011;27783;42.782;23.274;2023-02-28T02:45:25;31.58;;;21.95;;
42118;SDS011;27783;42.782;23.274;2023-02-28T02:48:00;33.13;;;22.45;;
42118;SDS011;27783;42.782;23.274;2023-02-28T02:50:33;36.22;;;24.67;;
42118;SDS011;27783;42.782;23.274;2023-02-28T02:53:03;36.33;;;23.15;;
42118;SDS011;27783;42.782;23.274;2023-02-28T02:55:31;44.45;;;25.63;;
42118;SDS011;27783;42.782;23.274;2023-02-28T02:58:03;35.03;;;22.08;;
42118;SDS011;27783;42.782;23.274;2023-02-28T03:00:34;32.63;;;21.23;;
42118;SDS011;27783;42.782;23.274;2023-02-28T03:03:03;33.92;;;21.88;;
42118;SDS011;27783;42.782;23.274;2023-02-28T03:05:31;44.38;;;26.13;;
42118;SDS011;27783;42.782;23.274;2023-02-28T03:08:04;37.47;;;22.58;;
42118;SDS011;27783;42.782;23.274;2023-02-28T03:13:08;32.25;;;19.48;;
42118;SDS011;27783;42.782;23.274;2023-02-28T03:21:38;33.05;;;20.17;;
42118;SDS011;27783;42.782;23.274;2023-02-28T03:26:41;38.58;;;24.15;;
42118;SDS011;27783;42.782;23.274;2023-02-28T03:29:43;31.75;;;20.80;;
42118;SDS011;27783;42.782;23.274;2023-02-28T03:32:21;35.95;;;21.67;;
42118;SDS011;27783;42.782;23.274;2023-02-28T03:37:36;27.90;;;17.77;;
42118;SDS011;27783;42.782;23.274;2023-02-28T03:40:09;34.33;;;20.30;;
42118;SDS011;27783;42.782;23.274;2023-02-28T03:42:39;29.58;;;18.15;;
42118;SDS011;27783;42.782;23.274;2023-02-28T03:45:12;29.60;;;18.92;;
42118;SDS011;27783;42.782;23.274;2023-02-28T03:47:44;28.05;;;18.90;;
42118;SDS011;27783;42.782;23.274;2023-02-28T03:50:36;33.13;;;21.25;;
42118;SDS011;27783;42.782;23.274;2023-02-28T03:55:37;33.33;;;20.85;;
42118;SDS011;27783;42.782;23.274;2023-02-28T03:58:30;31.42;;;19.55;;
42118;SDS011;27783;42.782;23.274;2023-02-28T04:00:59;30.50;;;19.02;;
42118;SDS011;27783;42.782;23.274;2023-02-28T04:03:36;34.13;;;21.52;;
42118;SDS011;27783;42.782;23.274;2023-02-28T04:06:12;32.10;;;21.70;;
42118;SDS011;27783;42.782;23.274;2023-02-28T04:14:01;35.30;;;22.60;;
42118;SDS011;27783;42.782;23.274;2023-02-28T04:16:52;41.88;;;27.42;;
42118;SDS011;27783;42.782;23.274;2023-02-28T04:19:18;61.38;;;36.15;;
42118;SDS011;27783;42.782;23.274;2023-02-28T04:21:50;113.78;;;71.20;;
42118;SDS011;27783;42.782;23.274;2023-02-28T04:24:26;93.30;;;55.20;;
42118;SDS011;27783;42.782;23.274;2023-02-28T04:26:54;129.10;;;74.55;;
42118;SDS011;27783;42.782;23.274;2023-02-28T04:29:25;88.97;;;52.70;;
42118;SDS011;27783;42.782;23.274;2023-02-28T04:31:53;81.13;;;43.72;;
42118;SDS011;27783;42.782;23.274;2023-02-28T04:34:33;92.85;;;56.67;;
42118;SDS011;27783;42.782;23.274;2023-02-28T04:39:26;130.27;;;73.43;;
42118;SDS011;27783;42.782;23.274;2023-02-28T04:41:53;89.47;;;55.03;;
42118;SDS011;27783;42.782;23.274;2023-02-28T04:44:20;101.72;;;61.25;;
42118;SDS011;27783;42.782;23.274;2023-02-28T04:46:47;260.00;;;143.52;;
42118;SDS011;27783;42.782;23.274;2023-02-28T04:49:27;519.17;;;220.45;;
42118;SDS011;27783;42.782;23.274;2023-02-28T04:51:56;186.77;;;89.82;;
42118;SDS011;27783;42.782;23.274;2023-02-28T04:54:21;252.35;;;63.78;;
42118;SDS011;27783;42.782;23.274;2023-02-28T04:56:48;124.57;;;59.30;;
42118;SDS011;27783;42.782;23.274;2023-02-28T04:59:16;139.50;;;48.03;;
42118;SDS011;27783;42.782;23.274;2023-02-28T05:01:45;116.88;;;44.83;;
42118;SDS011;27783;42.782;23.274;2023-02-28T05:04:12;94.55;;;42.13;;
42118;SDS011;27783;42.782;23.274;2023-02-28T05:06:40;97.73;;;43.07;;
42118;SDS011;27783;42.782;23.274;2023-02-28T05:09:05;108.82;;;50.50;;
42118;SDS011;27783;42.782;23.274;2023-02-28T05:11:32;109.30;;;49.70;;
42118;SDS011;27783;42.782;23.274;2023-02-28T05:14:07;119.15;;;51.08;;
42118;SDS011;27783;42.782;23.274;2023-02-28T05:16:40;132.95;;;58.35;;
42118;SDS011;27783;42.782;23.274;2023-02-28T05:19:06;130.18;;;59.92;;
42118;SDS011;27783;42.782;23.274;2023-02-28T05:21:35;141.13;;;61.03;;
42118;SDS011;27783;42.782;23.274;2023-02-28T05:24:05;115.60;;;49.28;;
42118;SDS011;27783;42.782;23.274;2023-02-28T05:26:36;117.88;;;51.90;;
42118;SDS011;27783;42.782;23.274;2023-02-28T05:29:05;101.82;;;49.97;;
42118;SDS011;27783;42.782;23.274;2023-02-28T05:31:34;96.85;;;46.50;;
42118;SDS011;27783;42.782;23.274;2023-02-28T05:34:00;109.55;;;52.38;;
42118;SDS011;27783;42.782;23.274;2023-02-28T05:36:26;128.85;;;57.33;;
42118;SDS011;27783;42.782;23.274;2023-02-28T05:38:52;116.07;;;59.47;;
42118;SDS011;27783;42.782;23.274;2023-02-28T05:41:18;105.22;;;46.42;;
42118;SDS011;27783;42.782;23.274;2023-02-28T05:43:45;138.27;;;51.28;;
42118;SDS011;27783;42.782;23.274;2023-02-28T05:46:11;106.20;;;48.17;;
42118;SDS011;27783;42.782;23.274;2023-02-28T05:48:37;94.03;;;47.40;;
42118;SDS011;27783;42.782;23.274;2023-02-28T05:51:14;122.43;;;60.42;;
42118;SDS011;27783;42.782;23.274;2023-02-28T05:53:40;111.00;;;54.85;;
42118;SDS011;27783;42.782;23.274;2023-02-28T05:56:06;150.02;;;70.35;;
42118;SDS011;27783;42.782;23.274;2023-02-28T05:58:31;206.00;;;86.20;;
42118;SDS011;27783;42.782;23.274;2023-02-28T06:00:57;157.43;;;73.60;;
42118;SDS011;27783;42.782;23.274;2023-02-28T06:03:23;141.70;;;65.28;;
42118;SDS011;27783;42.782;23.274;2023-02-28T06:05:49;214.60;;;66.68;;
42118;SDS011;27783;42.782;23.274;2023-02-28T06:08:15;120.32;;;57.65;;
42118;SDS011;27783;42.782;23.274;2023-02-28T06:10:41;411.20;;;114.05;;
42118;SDS011;27783;42.782;23.274;2023-02-28T06:13:06;260.23;;;71.40;;
42118;SDS011;27783;42.782;23.274;2023-02-28T06:15:31;225.32;;;88.70;;
42118;SDS011;27783;42.782;23.274;2023-02-28T06:17:57;175.30;;;64.90;;
42118;SDS011;27783;42.782;23.274;2023-02-28T06:20:23;214.15;;;96.45;;
42118;SDS011;27783;42.782;23.274;2023-02-28T06:22:49;194.93;;;65.83;;
42118;SDS011;27783;42.782;23.274;2023-02-28T06:25:16;148.13;;;60.78;;
42118;SDS011;27783;42.782;23.274;2023-02-28T06:27:42;195.50;;;104.90;;
42118;SDS011;27783;42.782;23.274;2023-02-28T06:30:08;150.73;;;70.15;;
42118;SDS011;27783;42.782;23.274;2023-02-28T06:32:34;193.87;;;105.83;;
42118;SDS011;27783;42.782;23.274;2023-02-28T06:35:00;180.60;;;112.47;;
42118;SDS011;27783;42.782;23.274;2023-02-28T06:37:26;123.53;;;67.68;;
42118;SDS011;27783;42.782;23.274;2023-02-28T06:39:51;159.45;;;87.43;;
42118;SDS011;27783;42.782;23.274;2023-02-28T06:42:17;170.00;;;101.45;;
42118;SDS011;27783;42.782;23.274;2023-02-28T06:44:43;82.90;;;45.28;;
42118;SDS011;27783;42.782;23.274;2023-02-28T06:47:09;77.43;;;41.88;;
42118;SDS011;27783;42.782;23.274;2023-02-28T06:49:35;77.15;;;39.83;;
42118;SDS011;27783;42.782;23.274;2023-02-28T06:52:01;63.92;;;37.47;;
42118;SDS011;27783;42.782;23.274;2023-02-28T06:54:27;63.72;;;35.40;;
42118;SDS011;27783;42.782;23.274;2023-02-28T06:56:53;66.10;;;37.92;;
42118;SDS011;27783;42.782;23.274;2023-02-28T06:59:19;62.58;;;36.95;;
42118;SDS011;27783;42.782;23.274;2023-02-28T07:01:45;62.92;;;37.47;;
42118;SDS011;27783;42.782;23.274;2023-02-28T07:04:10;61.70;;;37.33;;
42118;SDS011;27783;42.782;23.274;2023-02-28T07:06:35;57.60;;;34.83;;
42118;SDS011;27783;42.782;23.274;2023-02-28T07:09:01;56.80;;;34.85;;
42118;SDS011;27783;42.782;23.274;2023-02-28T07:11:27;61.17;;;36.35;;
42118;SDS011;27783;42.782;23.274;2023-02-28T07:13:55;58.90;;;36.50;;
42118;SDS011;27783;42.782;23.274;2023-02-28T07:16:22;65.07;;;40.90;;
42118;SDS011;27783;42.782;23.274;2023-02-28T07:18:48;77.10;;;49.38;;
42118;SDS011;27783;42.782;23.274;2023-02-28T07:21:14;85.68;;;64.68;;
42118;SDS011;27783;42.782;23.274;2023-02-28T07:23:40;73.22;;;45.55;;
42118;SDS011;27783;42.782;23.274;2023-02-28T07:26:07;72.13;;;46.88;;
42118;SDS011;27783;42.782;23.274;2023-02-28T07:28:38;71.82;;;44.17;;
42118;SDS011;27783;42.782;23.274;2023-02-28T07:31:04;81.13;;;54.47;;
42118;SDS011;27783;42.782;23.274;2023-02-28T07:33:30;68.20;;;48.10;;
42118;SDS011;27783;42.782;23.274;2023-02-28T07:35:59;51.55;;;34.00;;
42118;SDS011;27783;42.782;23.274;2023-02-28T07:38:29;50.28;;;34.03;;
42118;SDS011;27783;42.782;23.274;2023-02-28T07:40:54;63.47;;;50.90;;
42118;SDS011;27783;42.782;23.274;2023-02-28T07:43:20;52.47;;;40.83;;
42118;SDS011;27783;42.782;23.274;2023-02-28T07:45:45;62.45;;;50.35;;
42118;SDS011;27783;42.782;23.274;2023-02-28T07:48:10;57.83;;;51.53;;
42118;SDS011;27783;42.782;23.274;2023-02-28T07:50:36;74.68;;;66.18;;
42118;SDS011;27783;42.782;23.274;2023-02-28T07:53:01;55.25;;;38.92;;
42118;SDS011;27783;42.782;23.274;2023-02-28T07:55:26;46.65;;;33.20;;
42118;SDS011;27783;42.782;23.274;2023-02-28T07:57:52;69.10;;;58.67;;
42118;SDS011;27783;42.782;23.274;2023-02-28T08:00:18;45.85;;;32.00;;
42118;SDS011;27783;42.782;23.274;2023-02-28T08:02:43;56.33;;;41.78;;
42118;SDS011;27783;42.782;23.274;2023-02-28T08:05:09;99.85;;;89.68;;
42118;SDS011;27783;42.782;23.274;2023-02-28T08:07:34;58.75;;;41.17;;
42118;SDS011;27783;42.782;23.274;2023-02-28T08:10:00;62.05;;;42.55;;
42118;SDS011;27783;42.782;23.274;2023-02-28T08:12:26;59.15;;;38.85;;
42118;SDS011;27783;42.782;23.274;2023-02-28T08:14:51;64.10;;;38.22;;
42118;SDS011;27783;42.782;23.274;2023-02-28T08:17:16;119.30;;;77.50;;
42118;SDS011;27783;42.782;23.274;2023-02-28T08:19:44;84.22;;;66.05;;
42118;SDS011;27783;42.782;23.274;2023-02-28T08:22:11;70.68;;;48.35;;
42118;SDS011;27783;42.782;23.274;2023-02-28T08:24:36;62.63;;;44.38;;
42118;SDS011;27783;42.782;23.274;2023-02-28T08:27:01;63.53;;;47.03;;
42118;SDS011;27783;42.782;23.274;2023-02-28T08:29:27;72.53;;;55.25;;
42118;SDS011;27783;42.782;23.274;2023-02-28T08:31:52;65.88;;;47.60;;
42118;SDS011;27783;42.782;23.274;2023-02-28T08:34:18;53.60;;;41.55;;
42118;SDS011;27783;42.782;23.274;2023-02-28T08:36:43;53.28;;;40.28;;
42118;SDS011;27783;42.782;23.274;2023-02-28T08:39:11;54.83;;;37.95;;
42118;SDS011;27783;42.782;23.274;2023-02-28T08:41:36;49.28;;;35.15;;
42118;SDS011;27783;42.782;23.274;2023-02-28T08:44:02;44.83;;;34.25;;
42118;SDS011;27783;42.782;23.274;2023-02-28T08:46:27;45.80;;;35.60;;
42118;SDS011;27783;42.782;23.274;2023-02-28T08:48:53;44.85;;;34.05;;
42118;SDS011;27783;42.782;23.274;2023-02-28T08:51:20;45.83;;;31.60;;
42118;SDS011;27783;42.782;23.274;2023-02-28T08:53:51;40.65;;;31.10;;
42118;SDS011;27783;42.782;23.274;2023-02-28T08:56:18;44.88;;;32.50;;
42118;SDS011;27783;42.782;23.274;2023-02-28T08:58:44;42.90;;;31.17;;
42118;SDS011;27783;42.782;23.274;2023-02-28T09:01:16;49.20;;;36.70;;
42118;SDS011;27783;42.782;23.274;2023-02-28T09:03:43;51.55;;;40.10;;
42118;SDS011;27783;42.782;23.274;2023-02-28T09:06:10;53.72;;;38.58;;
42118;SDS011;27783;42.782;23.274;2023-02-28T09:08:37;61.35;;;37.50;;
42118;SDS011;27783;42.782;23.274;2023-02-28T09:11:03;57.25;;;40.97;;
42118;SDS011;27783;42.782;23.274;2023-02-28T09:13:29;55.28;;;41.55;;
42118;SDS011;27783;42.782;23.274;2023-02-28T09:15:58;52.45;;;38.45;;
42118;SDS011;27783;42.782;23.274;2023-02-28T09:18:24;52.35;;;40.45;;
42118;SDS011;27783;42.782;23.274;2023-02-28T09:20:50;56.95;;;39.28;;
42118;SDS011;27783;42.782;23.274;2023-02-28T09:23:15;65.03;;;36.53;;
42118;SDS011;27783;42.782;23.274;2023-02-28T09:25:48;52.55;;;38.22;;
42118;SDS011;27783;42.782;23.274;2023-02-28T09:28:15;52.13;;;39.20;;
42118;SDS011;27783;42.782;23.274;2023-02-28T09:30:41;50.75;;;40.13;;
42118;SDS011;27783;42.782;23.274;2023-02-28T09:33:08;48.08;;;39.05;;
42118;SDS011;27783;42.782;23.274;2023-02-28T09:35:34;48.80;;;38.83;;
42118;SDS011;27783;42.782;23.274;2023-02-28T09:37:59;50.38;;;37.20;;
42118;SDS011;27783;42.782;23.274;2023-02-28T09:40:27;53.28;;;39.50;;
42118;SDS011;27783;42.782;23.274;2023-02-28T09:42:54;74.50;;;58.85;;
42118;SDS011;27783;42.782;23.274;2023-02-28T09:45:28;57.92;;;50.00;;
42118;SDS011;27783;42.782;23.274;2023-02-28T09:48:02;47.93;;;37.73;;
42118;SDS011;27783;42.782;23.274;2023-02-28T09:50:31;60.38;;;43.03;;
42118;SDS011;27783;42.782;23.274;2023-02-28T09:52:58;59.45;;;46.33;;
42118;SDS011;27783;42.782;23.274;2023-02-28T09:58:04;40.35;;;28.75;;
42118;SDS011;27783;42.782;23.274;2023-02-28T10:00:34;36.60;;;27.67;;
42118;SDS011;27783;42.782;23.274;2023-02-28T10:05:59;45.08;;;30.52;;
42118;SDS011;27783;42.782;23.274;2023-02-28T10:08:43;41.10;;;30.42;;
42118;SDS011;27783;42.782;23.274;2023-02-28T10:11:17;36.22;;;28.45;;
42118;SDS011;27783;42.782;23.274;2023-02-28T10:16:20;32.33;;;25.10;;
42118;SDS011;27783;42.782;23.274;2023-02-28T10:19:33;33.58;;;25.67;;
42118;SDS011;27783;42.782;23.274;2023-02-28T10:24:39;37.70;;;29.80;;
42118;SDS011;27783;42.782;23.274;2023-02-28T10:27:23;40.55;;;27.52;;
42118;SDS011;27783;42.782;23.274;2023-02-28T10:29:52;31.90;;;24.20;;
42118;SDS011;27783;42.782;23.274;2023-02-28T10:32:20;32.03;;;22.25;;
42118;SDS011;27783;42.782;23.274;2023-02-28T10:35:14;32.80;;;23.52;;
42118;SDS011;27783;42.782;23.274;2023-02-28T10:37:37;23.38;;;20.60;;
42118;SDS011;27783;42.782;23.274;2023-02-28T10:40:04;30.73;;;19.90;;
42118;SDS011;27783;42.782;23.274;2023-02-28T10:42:31;25.83;;;20.50;;
42118;SDS011;27783;42.782;23.274;2023-02-28T10:45:16;28.23;;;20.35;;
42118;SDS011;27783;42.782;23.274;2023-02-28T10:52:54;29.58;;;20.15;;
42118;SDS011;27783;42.782;23.274;2023-02-28T10:55:24;25.83;;;21.30;;
42118;SDS011;27783;42.782;23.274;2023-02-28T10:57:51;24.85;;;20.83;;
42118;SDS011;27783;42.782;23.274;2023-02-28T11:00:18;28.50;;;21.08;;
42118;SDS011;27783;42.782;23.274;2023-02-28T11:02:50;25.23;;;20.40;;
42118;SDS011;27783;42.782;23.274;2023-02-28T11:10:22;24.25;;;19.20;;
42118;SDS011;27783;42.782;23.274;2023-02-28T11:12:54;22.88;;;17.73;;
42118;SDS011;27783;42.782;23.274;2023-02-28T11:17:56;25.70;;;21.55;;
42118;SDS011;27783;42.782;23.274;2023-02-28T11:20:24;34.42;;;24.83;;
42118;SDS011;27783;42.782;23.274;2023-02-28T11:25:26;22.95;;;19.88;;
42118;SDS011;27783;42.782;23.274;2023-02-28T11:28:01;33.22;;;21.50;;
42118;SDS011;27783;42.782;23.274;2023-02-28T11:30:32;29.90;;;18.38;;
42118;SDS011;27783;42.782;23.274;2023-02-28T11:33:18;27.38;;;20.95;;
42118;SDS011;27783;42.782;23.274;2023-02-28T11:35:47;27.65;;;19.27;;
42118;SDS011;27783;42.782;23.274;2023-02-28T11:38:14;35.65;;;21.00;;
42118;SDS011;27783;42.782;23.274;2023-02-28T11:45:44;38.35;;;21.98;;
42118;SDS011;27783;42.782;23.274;2023-02-28T11:53:39;27.00;;;21.88;;
42118;SDS011;27783;42.782;23.274;2023-02-28T11:59:19;31.02;;;22.80;;
42118;SDS011;27783;42.782;23.274;2023-02-28T12:10:25;27.92;;;23.02;;
42118;SDS011;27783;42.782;23.274;2023-02-28T12:13:16;31.00;;;22.00;;
42118;SDS011;27783;42.782;23.274;2023-02-28T12:18:42;24.08;;;20.83;;
42118;SDS011;27783;42.782;23.274;2023-02-28T12:21:14;29.27;;;21.15;;
42118;SDS011;27783;42.782;23.274;2023-02-28T12:26:51;27.50;;;19.75;;
42118;SDS011;27783;42.782;23.274;2023-02-28T12:34:52;20.83;;;18.02;;
42118;SDS011;27783;42.782;23.274;2023-02-28T12:37:41;23.25;;;20.02;;
42118;SDS011;27783;42.782;23.274;2023-02-28T12:40:28;22.90;;;17.85;;
42118;SDS011;27783;42.782;23.274;2023-02-28T12:43:04;28.05;;;17.67;;
42118;SDS011;27783;42.782;23.274;2023-02-28T12:45:39;30.75;;;18.77;;
42118;SDS011;27783;42.782;23.274;2023-02-28T12:48:09;28.27;;;18.13;;
42118;SDS011;27783;42.782;23.274;2023-02-28T12:50:39;24.10;;;17.85;;
42118;SDS011;27783;42.782;23.274;2023-02-28T12:53:06;29.65;;;19.10;;
42118;SDS011;27783;42.782;23.274;2023-02-28T12:58:17;19.23;;;17.13;;
42118;SDS011;27783;42.782;23.274;2023-02-28T13:03:46;22.60;;;17.95;;
42118;SDS011;27783;42.782;23.274;2023-02-28T13:09:14;27.10;;;18.05;;
42118;SDS011;27783;42.782;23.274;2023-02-28T13:14:28;26.38;;;18.67;;
42118;SDS011;27783;42.782;23.274;2023-02-28T13:19:35;22.83;;;17.98;;
42118;SDS011;27783;42.782;23.274;2023-02-28T13:22:04;30.15;;;19.45;;
42118;SDS011;27783;42.782;23.274;2023-02-28T13:34:39;26.58;;;19.25;;
42118;SDS011;27783;42.782;23.274;2023-02-28T13:42:34;26.38;;;18.10;;
42118;SDS011;27783;42.782;23.274;2023-02-28T13:47:31;28.65;;;19.08;;
42118;SDS011;27783;42.782;23.274;2023-02-28T13:50:41;22.88;;;18.35;;
42118;SDS011;27783;42.782;23.274;2023-02-28T13:52:49;25.48;;;17.77;;
42118;SDS011;27783;42.782;23.274;2023-02-28T14:03:41;37.70;;;23.05;;
42118;SDS011;27783;42.782;23.274;2023-02-28T14:08:49;36.45;;;22.38;;
42118;SDS011;27783;42.782;23.274;2023-02-28T14:11:27;33.15;;;22.23;;
42118;SDS011;27783;42.782;23.274;2023-02-28T14:14:06;29.53;;;24.07;;
42118;SDS011;27783;42.782;23.274;2023-02-28T14:16:36;27.35;;;21.17;;
42118;SDS011;27783;42.782;23.274;2023-02-28T14:21:35;29.73;;;22.10;;
42118;SDS011;27783;42.782;23.274;2023-02-28T14:35:43;37.90;;;29.55;;
42118;SDS011;27783;42.782;23.274;2023-02-28T14:37:44;37.85;;;27.10;;
42118;SDS011;27783;42.782;23.274;2023-02-28T14:40:21;28.30;;;24.20;;
42118;SDS011;27783;42.782;23.274;2023-02-28T14:43:02;45.03;;;25.50;;
42118;SDS011;27783;42.782;23.274;2023-02-28T14:45:31;38.30;;;23.50;;
42118;SDS011;27783;42.782;23.274;2023-02-28T14:47:58;55.47;;;39.88;;
42118;SDS011;27783;42.782;23.274;2023-02-28T14:50:31;42.22;;;25.27;;
42118;SDS011;27783;42.782;23.274;2023-02-28T14:52:59;39.88;;;23.00;;
42118;SDS011;27783;42.782;23.274;2023-02-28T14:55:26;37.90;;;26.13;;
42118;SDS011;27783;42.782;23.274;2023-02-28T14:57:55;25.88;;;23.08;;
42118;SDS011;27783;42.782;23.274;2023-02-28T15:00:29;24.75;;;19.75;;
42118;SDS011;27783;42.782;23.274;2023-02-28T15:02:57;20.52;;;16.75;;
42118;SDS011;27783;42.782;23.274;2023-02-28T15:05:28;26.60;;;19.50;;
42118;SDS011;27783;42.782;23.274;2023-02-28T15:08:02;30.33;;;16.52;;
42118;SDS011;27783;42.782;23.274;2023-02-28T15:10:39;38.58;;;20.08;;
42118;SDS011;27783;42.782;23.274;2023-02-28T15:13:11;29.30;;;18.90;;
42118;SDS011;27783;42.782;23.274;2023-02-28T15:15:41;87.70;;;49.08;;
42118;SDS011;27783;42.782;23.274;2023-02-28T15:20:37;63.85;;;39.33;;
42118;SDS011;27783;42.782;23.274;2023-02-28T15:23:04;58.00;;;43.45;;
42118;SDS011;27783;42.782;23.274;2023-02-28T15:25:29;29.25;;;16.77;;
42118;SDS011;27783;42.782;23.274;2023-02-28T15:27:56;35.05;;;21.65;;
42118;SDS011;27783;42.782;23.274;2023-02-28T15:30:26;17.10;;;13.18;;
42118;SDS011;27783;42.782;23.274;2023-02-28T15:33:07;16.65;;;9.55;;
42118;SDS011;27783;42.782;23.274;2023-02-28T15:35:44;14.80;;;12.00;;
42118;SDS011;27783;42.782;23.274;2023-02-28T15:38:23;15.48;;;10.35;;
42118;SDS011;27783;42.782;23.274;2023-02-28T15:46:01;13.68;;;9.20;;
42118;SDS011;27783;42.782;23.274;2023-02-28T15:48:36;26.63;;;14.40;;
42118;SDS011;27783;42.782;23.274;2023-02-28T15:54:04;23.13;;;16.92;;
42118;SDS011;27783;42.782;23.274;2023-02-28T15:56:43;34.55;;;26.05;;
42118;SDS011;27783;42.782;23.274;2023-02-28T15:59:15;45.55;;;29.60;;
42118;SDS011;27783;42.782;23.274;2023-02-28T16:01:44;28.55;;;17.48;;
42118;SDS011;27783;42.782;23.274;2023-02-28T16:04:17;21.05;;;15.40;;
42118;SDS011;27783;42.782;23.274;2023-02-28T16:06:44;16.90;;;11.32;;
42118;SDS011;27783;42.782;23.274;2023-02-28T16:09:14;19.02;;;11.60;;
42118;SDS011;27783;42.782;23.274;2023-02-28T16:11:42;58.20;;;33.88;;
42118;SDS011;27783;42.782;23.274;2023-02-28T16:14:20;97.05;;;55.13;;
42118;SDS011;27783;42.782;23.274;2023-02-28T16:16:52;75.90;;;41.20;;
42118;SDS011;27783;42.782;23.274;2023-02-28T16:19:20;42.72;;;23.10;;
42118;SDS011;27783;42.782;23.274;2023-02-28T16:21:46;59.13;;;39.97;;
42118;SDS011;27783;42.782;23.274;2023-02-28T16:24:11;48.20;;;27.85;;
42118;SDS011;27783;42.782;23.274;2023-02-28T16:26:37;30.40;;;19.45;;
42118;SDS011;27783;42.782;23.274;2023-02-28T16:29:05;33.33;;;22.77;;
42118;SDS011;27783;42.782;23.274;2023-02-28T16:31:36;19.98;;;14.05;;
42118;SDS011;27783;42.782;23.274;2023-02-28T16:34:03;16.92;;;13.57;;
42118;SDS011;27783;42.782;23.274;2023-02-28T16:36:29;30.60;;;19.38;;
42118;SDS011;27783;42.782;23.274;2023-02-28T16:38:56;17.52;;;11.13;;
42118;SDS011;27783;42.782;23.274;2023-02-28T16:41:24;16.05;;;10.48;;
42118;SDS011;27783;42.782;23.274;2023-02-28T16:43:55;12.80;;;8.05;;
42118;SDS011;27783;42.782;23.274;2023-02-28T16:46:26;15.80;;;10.40;;
42118;SDS011;27783;42.782;23.274;2023-02-28T16:48:55;21.83;;;12.15;;
42118;SDS011;27783;42.782;23.274;2023-02-28T16:51:21;21.73;;;12.93;;
42118;SDS011;27783;42.782;23.274;2023-02-28T16:53:46;15.07;;;11.25;;
42118;SDS011;27783;42.782;23.274;2023-02-28T16:56:14;14.50;;;11.98;;
42118;SDS011;27783;42.782;23.274;2023-02-28T16:58:43;20.38;;;14.85;;
42118;SDS011;27783;42.782;23.274;2023-02-28T17:01:11;9.45;;;7.40;;
42118;SDS011;27783;42.782;23.274;2023-02-28T17:03:41;16.25;;;8.80;;
42118;SDS011;27783;42.782;23.274;2023-02-28T17:06:26;10.65;;;7.75;;
42118;SDS011;27783;42.782;23.274;2023-02-28T17:08:58;13.75;;;8.80;;
42118;SDS011;27783;42.782;23.274;2023-02-28T17:11:25;15.00;;;10.07;;
42118;SDS011;27783;42.782;23.274;2023-02-28T17:14:00;14.38;;;8.80;;